This is the latest recevied weather packets stored in our database for station/object KF4PPJ. If no packets are shown the sender has not sent any weather packets the latest 10 day(s).
| Time | Temp. | Humidity | Pressure | Rain* | Wind** | Luminosity | Snow |
|---|---|---|---|---|---|---|---|
| 1777657646 | 18.89° C | 60% | 1019.2 hPa | 0 mm | - | 598 W/m² | - |
| 1777657344 | 18.89° C | 59% | 1019.3 hPa | 0 mm | - | 440 W/m² | - |
| 1777657042 | 17.78° C | 61% | 1019.3 hPa | 0 mm | - | 533 W/m² | - |
| 1777656738 | 17.78° C | 60% | 1019.5 hPa | 0 mm | - | 492 W/m² | - |
| 1777656434 | 17.78° C | 62% | 1019.6 hPa | 0 mm | - | 428 W/m² | - |
| 1777656129 | 17.22° C | 63% | 1019.3 hPa | 0 mm | - | 442 W/m² | - |
| 1777655826 | 17.22° C | 63% | 1019.6 hPa | 0 mm | - | 431 W/m² | - |
| 1777655523 | 16.67° C | 64% | 1019.8 hPa | 0 mm | - | 445 W/m² | - |
| 1777655220 | 16.11° C | 66% | 1019.5 hPa | 0 mm | - | 428 W/m² | - |
| 1777654916 | 16.67° C | 67% | 1019.7 hPa | 0 mm | - | 391 W/m² | - |
| 1777654614 | 17.22° C | 64% | 1019.6 hPa | 0 mm | - | 367 W/m² | - |
| 1777654311 | 17.22° C | 66% | 1019.6 hPa | 0 mm | - | 343 W/m² | - |
| 1777654009 | 16.11° C | 70% | 1019.6 hPa | 0 mm | - | 339 W/m² | - |
| 1777653705 | 16.11° C | 70% | 1019.8 hPa | 0 mm | - | 271 W/m² | - |
| 1777653402 | 15.56° C | 70% | 1019.8 hPa | 0 mm | - | 292 W/m² | - |
| 1777653099 | 15.56° C | 72% | 1019.9 hPa | 0 mm | - | 355 W/m² | - |
| 1777652795 | 15.56° C | 73% | 1019.9 hPa | 0 mm | - | 380 W/m² | - |
| 1777652492 | 15° C | 74% | 1020 hPa | 0 mm | - | 397 W/m² | - |
| 1777652189 | 14.44° C | 76% | 1020 hPa | 0 mm | - | 430 W/m² | - |
| 1777651886 | 14.44° C | 77% | 1020 hPa | 0 mm | - | 430 W/m² | - |
| 1777651583 | 14.44° C | 77% | 1020.2 hPa | 0 mm | - | 506 W/m² | - |
| 1777651280 | 13.89° C | 78% | 1020.3 hPa | 0 mm | - | 250 W/m² | - |
| 1777650976 | 13.89° C | 79% | 1020.2 hPa | 0 mm | - | 119 W/m² | - |
| 1777650674 | 13.89° C | 80% | 1020 hPa | 0 mm | - | 106 W/m² | - |
| 1777650371 | 13.89° C | 81% | 1020.1 hPa | 0 mm | - | 97 W/m² | - |
* Rain latest hour (hover to see other rain measurements)
** Current wind speed in m/s (hover to see current wind gust speed)